sensor_id;sensor_type;location;lat;lon;timestamp;temperature;humidity
3701;DHT22;1866;48.374;10.766;2022-11-13T00:01:15;4.00;1.00
3701;DHT22;1866;48.374;10.766;2022-11-13T00:03:44;4.00;1.00
3701;DHT22;1866;48.374;10.766;2022-11-13T00:06:11;4.00;1.00
3701;DHT22;1866;48.374;10.766;2022-11-13T00:08:39;3.80;1.00
3701;DHT22;1866;48.374;10.766;2022-11-13T00:11:07;4.00;1.00
3701;DHT22;1866;48.374;10.766;2022-11-13T00:13:34;3.90;1.00
3701;DHT22;1866;48.374;10.766;2022-11-13T00:16:03;4.10;1.00
3701;DHT22;1866;48.374;10.766;2022-11-13T00:18:32;4.10;1.00
3701;DHT22;1866;48.374;10.766;2022-11-13T00:21:05;4.20;1.00
3701;DHT22;1866;48.374;10.766;2022-11-13T00:23:33;4.10;1.00
3701;DHT22;1866;48.374;10.766;2022-11-13T00:26:04;3.90;1.00
3701;DHT22;1866;48.374;10.766;2022-11-13T00:28:31;4.10;1.00
3701;DHT22;1866;48.374;10.766;2022-11-13T00:30:59;3.90;1.00
3701;DHT22;1866;48.374;10.766;2022-11-13T00:33:27;4.10;1.00
3701;DHT22;1866;48.374;10.766;2022-11-13T00:36:01;3.90;1.00
3701;DHT22;1866;48.374;10.766;2022-11-13T00:38:30;3.90;1.00
3701;DHT22;1866;48.374;10.766;2022-11-13T00:40:57;3.80;1.00
3701;DHT22;1866;48.374;10.766;2022-11-13T00:43:25;3.70;1.00
3701;DHT22;1866;48.374;10.766;2022-11-13T00:45:52;3.60;1.00
3701;DHT22;1866;48.374;10.766;2022-11-13T00:48:21;3.50;1.00
3701;DHT22;1866;48.374;10.766;2022-11-13T00:50:48;3.50;1.00
3701;DHT22;1866;48.374;10.766;2022-11-13T00:53:15;3.50;1.00
3701;DHT22;1866;48.374;10.766;2022-11-13T00:55:44;3.60;1.00
3701;DHT22;1866;48.374;10.766;2022-11-13T00:58:12;3.60;1.00
3701;DHT22;1866;48.374;10.766;2022-11-13T01:00:39;3.80;1.00
3701;DHT22;1866;48.374;10.766;2022-11-13T01:03:06;3.60;1.00
3701;DHT22;1866;48.374;10.766;2022-11-13T01:05:34;3.50;1.00
3701;DHT22;1866;48.374;10.766;2022-11-13T01:08:02;3.50;1.00
3701;DHT22;1866;48.374;10.766;2022-11-13T01:10:28;3.60;1.00
3701;DHT22;1866;48.374;10.766;2022-11-13T01:12:57;3.80;1.00
3701;DHT22;1866;48.374;10.766;2022-11-13T01:15:24;3.80;1.00
3701;DHT22;1866;48.374;10.766;2022-11-13T01:17:51;3.60;1.00
3701;DHT22;1866;48.374;10.766;2022-11-13T01:20:20;3.70;1.00
3701;DHT22;1866;48.374;10.766;2022-11-13T01:22:47;3.80;1.00
3701;DHT22;1866;48.374;10.766;2022-11-13T01:25:17;3.60;1.00
3701;DHT22;1866;48.374;10.766;2022-11-13T01:27:44;3.60;1.00
3701;DHT22;1866;48.374;10.766;2022-11-13T01:30:12;3.60;1.00
3701;DHT22;1866;48.374;10.766;2022-11-13T01:32:39;3.50;1.00
3701;DHT22;1866;48.374;10.766;2022-11-13T01:35:06;3.50;1.00
3701;DHT22;1866;48.374;10.766;2022-11-13T01:37:33;3.40;1.00
3701;DHT22;1866;48.374;10.766;2022-11-13T01:40:00;3.40;1.00
3701;DHT22;1866;48.374;10.766;2022-11-13T01:42:27;3.30;1.00
3701;DHT22;1866;48.374;10.766;2022-11-13T01:44:55;3.30;1.00
3701;DHT22;1866;48.374;10.766;2022-11-13T01:47:25;3.30;1.00
3701;DHT22;1866;48.374;10.766;2022-11-13T01:49:55;3.30;1.00
3701;DHT22;1866;48.374;10.766;2022-11-13T01:52:25;3.30;1.00
3701;DHT22;1866;48.374;10.766;2022-11-13T01:54:55;3.30;1.00
3701;DHT22;1866;48.374;10.766;2022-11-13T01:57:23;3.30;1.00
3701;DHT22;1866;48.374;10.766;2022-11-13T01:59:53;3.40;1.00
3701;DHT22;1866;48.374;10.766;2022-11-13T02:02:22;3.40;1.00
3701;DHT22;1866;48.374;10.766;2022-11-13T02:04:51;3.30;1.00
3701;DHT22;1866;48.374;10.766;2022-11-13T02:07:19;3.40;1.00
3701;DHT22;1866;48.374;10.766;2022-11-13T02:09:49;3.40;1.00
3701;DHT22;1866;48.374;10.766;2022-11-13T02:12:20;3.30;1.00
3701;DHT22;1866;48.374;10.766;2022-11-13T02:14:50;3.30;1.00
3701;DHT22;1866;48.374;10.766;2022-11-13T02:17:22;3.30;1.00
3701;DHT22;1866;48.374;10.766;2022-11-13T02:19:55;3.30;1.00
3701;DHT22;1866;48.374;10.766;2022-11-13T02:22:28;3.40;1.00
3701;DHT22;1866;48.374;10.766;2022-11-13T02:25:01;3.40;1.00
3701;DHT22;1866;48.374;10.766;2022-11-13T02:27:33;3.40;1.00
3701;DHT22;1866;48.374;10.766;2022-11-13T02:30:11;3.40;1.00
3701;DHT22;1866;48.374;10.766;2022-11-13T02:32:42;3.40;1.00
3701;DHT22;1866;48.374;10.766;2022-11-13T02:35:10;3.30;1.00
3701;DHT22;1866;48.374;10.766;2022-11-13T02:37:37;3.30;1.00
3701;DHT22;1866;48.374;10.766;2022-11-13T02:40:07;3.20;1.00
3701;DHT22;1866;48.374;10.766;2022-11-13T02:42:34;3.20;1.00
3701;DHT22;1866;48.374;10.766;2022-11-13T02:45:01;3.30;1.00
3701;DHT22;1866;48.374;10.766;2022-11-13T02:47:28;3.30;1.00
3701;DHT22;1866;48.374;10.766;2022-11-13T02:49:55;3.20;1.00
3701;DHT22;1866;48.374;10.766;2022-11-13T02:52:22;3.10;1.00
3701;DHT22;1866;48.374;10.766;2022-11-13T02:54:49;3.20;1.00
3701;DHT22;1866;48.374;10.766;2022-11-13T02:57:17;3.20;1.00
3701;DHT22;1866;48.374;10.766;2022-11-13T02:59:44;3.20;1.00
3701;DHT22;1866;48.374;10.766;2022-11-13T03:02:11;3.10;1.00
3701;DHT22;1866;48.374;10.766;2022-11-13T03:04:38;3.10;1.00
3701;DHT22;1866;48.374;10.766;2022-11-13T03:07:05;3.10;1.00
3701;DHT22;1866;48.374;10.766;2022-11-13T03:09:32;2.90;1.00
3701;DHT22;1866;48.374;10.766;2022-11-13T03:11:58;3.10;1.00
3701;DHT22;1866;48.374;10.766;2022-11-13T03:14:28;3.10;1.00
3701;DHT22;1866;48.374;10.766;2022-11-13T03:16:54;3.20;1.00
3701;DHT22;1866;48.374;10.766;2022-11-13T03:19:21;3.10;1.00
3701;DHT22;1866;48.374;10.766;2022-11-13T03:21:49;3.20;1.00
3701;DHT22;1866;48.374;10.766;2022-11-13T03:24:15;3.20;1.00
3701;DHT22;1866;48.374;10.766;2022-11-13T03:26:42;3.10;1.00
3701;DHT22;1866;48.374;10.766;2022-11-13T03:29:09;3.10;1.00
3701;DHT22;1866;48.374;10.766;2022-11-13T03:31:37;3.10;1.00
3701;DHT22;1866;48.374;10.766;2022-11-13T03:34:04;3.10;1.00
3701;DHT22;1866;48.374;10.766;2022-11-13T03:36:31;3.00;1.00
3701;DHT22;1866;48.374;10.766;2022-11-13T03:38:58;3.00;1.00
3701;DHT22;1866;48.374;10.766;2022-11-13T03:41:25;3.00;1.00
3701;DHT22;1866;48.374;10.766;2022-11-13T03:43:51;3.00;1.00
3701;DHT22;1866;48.374;10.766;2022-11-13T03:46:18;3.10;1.00
3701;DHT22;1866;48.374;10.766;2022-11-13T03:48:47;3.00;1.00
3701;DHT22;1866;48.374;10.766;2022-11-13T03:51:14;3.10;1.00
3701;DHT22;1866;48.374;10.766;2022-11-13T03:53:40;3.00;1.00
3701;DHT22;1866;48.374;10.766;2022-11-13T03:56:07;3.00;1.00
3701;DHT22;1866;48.374;10.766;2022-11-13T03:58:34;3.10;1.00
3701;DHT22;1866;48.374;10.766;2022-11-13T04:01:01;3.00;1.00
3701;DHT22;1866;48.374;10.766;2022-11-13T04:03:28;3.00;1.00
3701;DHT22;1866;48.374;10.766;2022-11-13T04:05:56;3.00;1.00
3701;DHT22;1866;48.374;10.766;2022-11-13T04:08:23;3.00;1.00
3701;DHT22;1866;48.374;10.766;2022-11-13T04:10:50;2.90;1.00
3701;DHT22;1866;48.374;10.766;2022-11-13T04:13:16;2.90;1.00
3701;DHT22;1866;48.374;10.766;2022-11-13T04:15:43;2.90;1.00
3701;DHT22;1866;48.374;10.766;2022-11-13T04:18:10;3.00;1.00
3701;DHT22;1866;48.374;10.766;2022-11-13T04:20:37;2.90;1.00
3701;DHT22;1866;48.374;10.766;2022-11-13T04:23:05;2.80;1.00
3701;DHT22;1866;48.374;10.766;2022-11-13T04:25:36;2.80;1.00
3701;DHT22;1866;48.374;10.766;2022-11-13T04:28:03;3.00;1.00
3701;DHT22;1866;48.374;10.766;2022-11-13T04:30:30;2.70;1.00
3701;DHT22;1866;48.374;10.766;2022-11-13T04:32:57;2.70;1.00
3701;DHT22;1866;48.374;10.766;2022-11-13T04:35:24;2.70;1.00
3701;DHT22;1866;48.374;10.766;2022-11-13T04:37:51;2.70;1.00
3701;DHT22;1866;48.374;10.766;2022-11-13T04:40:19;2.70;1.00
3701;DHT22;1866;48.374;10.766;2022-11-13T04:42:49;2.70;1.00
3701;DHT22;1866;48.374;10.766;2022-11-13T04:45:16;2.70;1.00
3701;DHT22;1866;48.374;10.766;2022-11-13T04:47:43;2.60;1.00
3701;DHT22;1866;48.374;10.766;2022-11-13T04:50:10;2.60;1.00
3701;DHT22;1866;48.374;10.766;2022-11-13T04:52:37;2.60;1.00
3701;DHT22;1866;48.374;10.766;2022-11-13T04:55:05;2.60;1.00
3701;DHT22;1866;48.374;10.766;2022-11-13T04:57:33;2.60;1.00
3701;DHT22;1866;48.374;10.766;2022-11-13T05:00:00;2.70;1.00
3701;DHT22;1866;48.374;10.766;2022-11-13T05:02:27;2.60;1.00
3701;DHT22;1866;48.374;10.766;2022-11-13T05:04:54;2.60;1.00
3701;DHT22;1866;48.374;10.766;2022-11-13T05:07:21;2.70;1.00
3701;DHT22;1866;48.374;10.766;2022-11-13T05:09:48;2.70;1.00
3701;DHT22;1866;48.374;10.766;2022-11-13T05:12:15;2.70;1.00
3701;DHT22;1866;48.374;10.766;2022-11-13T05:14:43;2.70;1.00
3701;DHT22;1866;48.374;10.766;2022-11-13T05:17:11;2.70;1.00
3701;DHT22;1866;48.374;10.766;2022-11-13T05:19:38;2.70;1.00
3701;DHT22;1866;48.374;10.766;2022-11-13T05:22:05;2.80;1.00
3701;DHT22;1866;48.374;10.766;2022-11-13T05:24:32;2.80;1.00
3701;DHT22;1866;48.374;10.766;2022-11-13T05:26:59;2.80;1.00
3701;DHT22;1866;48.374;10.766;2022-11-13T05:29:26;2.80;1.00
3701;DHT22;1866;48.374;10.766;2022-11-13T05:31:54;2.70;1.00
3701;DHT22;1866;48.374;10.766;2022-11-13T05:34:21;2.90;1.00
3701;DHT22;1866;48.374;10.766;2022-11-13T05:36:48;2.80;1.00
3701;DHT22;1866;48.374;10.766;2022-11-13T05:39:15;2.80;1.00
3701;DHT22;1866;48.374;10.766;2022-11-13T05:41:42;2.90;1.00
3701;DHT22;1866;48.374;10.766;2022-11-13T05:44:09;2.80;1.00
3701;DHT22;1866;48.374;10.766;2022-11-13T05:46:35;2.70;1.00
3701;DHT22;1866;48.374;10.766;2022-11-13T05:49:04;2.80;1.00
3701;DHT22;1866;48.374;10.766;2022-11-13T05:51:32;2.80;1.00
3701;DHT22;1866;48.374;10.766;2022-11-13T05:53:59;3.00;1.00
3701;DHT22;1866;48.374;10.766;2022-11-13T05:56:28;2.80;1.00
3701;DHT22;1866;48.374;10.766;2022-11-13T05:58:56;2.90;1.00
3701;DHT22;1866;48.374;10.766;2022-11-13T06:01:25;2.80;1.00
3701;DHT22;1866;48.374;10.766;2022-11-13T06:03:54;2.90;1.00
3701;DHT22;1866;48.374;10.766;2022-11-13T06:06:24;2.90;1.00
3701;DHT22;1866;48.374;10.766;2022-11-13T06:08:53;2.80;1.00
3701;DHT22;1866;48.374;10.766;2022-11-13T06:11:24;2.80;1.00
3701;DHT22;1866;48.374;10.766;2022-11-13T06:13:52;2.80;1.00
3701;DHT22;1866;48.374;10.766;2022-11-13T06:16:24;2.70;1.00
3701;DHT22;1866;48.374;10.766;2022-11-13T06:18:54;2.90;1.00
3701;DHT22;1866;48.374;10.766;2022-11-13T06:21:24;2.80;1.00
3701;DHT22;1866;48.374;10.766;2022-11-13T06:23:51;2.80;1.00
3701;DHT22;1866;48.374;10.766;2022-11-13T06:26:19;2.70;1.00
3701;DHT22;1866;48.374;10.766;2022-11-13T06:28:47;2.70;1.00
3701;DHT22;1866;48.374;10.766;2022-11-13T06:31:16;2.70;1.00
3701;DHT22;1866;48.374;10.766;2022-11-13T06:33:43;2.70;1.00
3701;DHT22;1866;48.374;10.766;2022-11-13T06:36:12;2.70;1.00
3701;DHT22;1866;48.374;10.766;2022-11-13T06:38:41;2.80;1.00
3701;DHT22;1866;48.374;10.766;2022-11-13T06:41:09;2.80;1.00
3701;DHT22;1866;48.374;10.766;2022-11-13T06:43:37;2.60;1.00
3701;DHT22;1866;48.374;10.766;2022-11-13T06:46:05;2.70;1.00
3701;DHT22;1866;48.374;10.766;2022-11-13T06:48:33;2.80;1.00
3701;DHT22;1866;48.374;10.766;2022-11-13T06:51:01;2.70;1.00
3701;DHT22;1866;48.374;10.766;2022-11-13T06:53:28;2.70;1.00
3701;DHT22;1866;48.374;10.766;2022-11-13T06:55:57;2.80;1.00
3701;DHT22;1866;48.374;10.766;2022-11-13T06:58:24;2.90;1.00
3701;DHT22;1866;48.374;10.766;2022-11-13T07:00:51;2.90;1.00
3701;DHT22;1866;48.374;10.766;2022-11-13T07:03:21;2.80;1.00
3701;DHT22;1866;48.374;10.766;2022-11-13T07:05:48;2.70;1.00
3701;DHT22;1866;48.374;10.766;2022-11-13T07:08:16;2.80;1.00
3701;DHT22;1866;48.374;10.766;2022-11-13T07:10:43;2.70;1.00
3701;DHT22;1866;48.374;10.766;2022-11-13T07:13:19;2.80;1.00
3701;DHT22;1866;48.374;10.766;2022-11-13T07:15:45;2.70;1.00
3701;DHT22;1866;48.374;10.766;2022-11-13T07:18:12;2.80;1.00
3701;DHT22;1866;48.374;10.766;2022-11-13T07:20:39;2.90;1.00
3701;DHT22;1866;48.374;10.766;2022-11-13T07:23:06;2.70;1.00
3701;DHT22;1866;48.374;10.766;2022-11-13T07:25:33;2.80;1.00
3701;DHT22;1866;48.374;10.766;2022-11-13T07:28:00;2.80;1.00
3701;DHT22;1866;48.374;10.766;2022-11-13T07:30:28;2.90;1.00
3701;DHT22;1866;48.374;10.766;2022-11-13T07:32:55;2.90;1.00
3701;DHT22;1866;48.374;10.766;2022-11-13T07:35:22;2.80;1.00
3701;DHT22;1866;48.374;10.766;2022-11-13T07:37:49;3.00;1.00
3701;DHT22;1866;48.374;10.766;2022-11-13T07:40:20;2.90;1.00
3701;DHT22;1866;48.374;10.766;2022-11-13T07:42:58;2.80;1.00
3701;DHT22;1866;48.374;10.766;2022-11-13T07:45:27;3.00;1.00
3701;DHT22;1866;48.374;10.766;2022-11-13T07:47:57;2.80;99.90
3701;DHT22;1866;48.374;10.766;2022-11-13T07:50:25;2.90;99.90
3701;DHT22;1866;48.374;10.766;2022-11-13T07:52:56;3.00;99.90
3701;DHT22;1866;48.374;10.766;2022-11-13T07:55:23;3.00;99.90
3701;DHT22;1866;48.374;10.766;2022-11-13T07:57:50;3.00;99.90
3701;DHT22;1866;48.374;10.766;2022-11-13T08:00:17;2.90;99.90
3701;DHT22;1866;48.374;10.766;2022-11-13T08:02:45;2.90;99.90
3701;DHT22;1866;48.374;10.766;2022-11-13T08:05:13;3.20;99.90
3701;DHT22;1866;48.374;10.766;2022-11-13T08:07:40;3.00;99.90
3701;DHT22;1866;48.374;10.766;2022-11-13T08:10:27;3.00;99.90
3701;DHT22;1866;48.374;10.766;2022-11-13T08:13:00;3.10;99.90
3701;DHT22;1866;48.374;10.766;2022-11-13T08:15:27;3.00;71.50
3701;DHT22;1866;48.374;10.766;2022-11-13T08:17:57;3.00;1.00
3701;DHT22;1866;48.374;10.766;2022-11-13T08:20:24;3.10;1.00
3701;DHT22;1866;48.374;10.766;2022-11-13T08:22:54;3.00;1.00
3701;DHT22;1866;48.374;10.766;2022-11-13T08:25:21;3.00;99.90
3701;DHT22;1866;48.374;10.766;2022-11-13T08:27:51;2.90;62.80
3701;DHT22;1866;48.374;10.766;2022-11-13T08:30:18;2.90;1.00
3701;DHT22;1866;48.374;10.766;2022-11-13T08:32:48;3.10;1.00
3701;DHT22;1866;48.374;10.766;2022-11-13T08:35:17;3.20;1.00
3701;DHT22;1866;48.374;10.766;2022-11-13T08:37:44;3.20;99.90
3701;DHT22;1866;48.374;10.766;2022-11-13T08:40:11;3.40;1.00
3701;DHT22;1866;48.374;10.766;2022-11-13T08:42:38;3.30;1.00
3701;DHT22;1866;48.374;10.766;2022-11-13T08:45:06;3.20;99.90
3701;DHT22;1866;48.374;10.766;2022-11-13T08:47:35;3.20;99.90
3701;DHT22;1866;48.374;10.766;2022-11-13T08:50:03;3.20;7.60
3701;DHT22;1866;48.374;10.766;2022-11-13T08:52:32;3.40;31.70
3701;DHT22;1866;48.374;10.766;2022-11-13T08:55:00;3.60;1.00
3701;DHT22;1866;48.374;10.766;2022-11-13T08:57:27;3.40;1.00
3701;DHT22;1866;48.374;10.766;2022-11-13T08:59:56;3.50;1.00
3701;DHT22;1866;48.374;10.766;2022-11-13T09:02:23;3.70;1.00
3701;DHT22;1866;48.374;10.766;2022-11-13T09:04:51;4.10;1.00
3701;DHT22;1866;48.374;10.766;2022-11-13T09:07:18;4.10;1.00
3701;DHT22;1866;48.374;10.766;2022-11-13T09:09:46;4.00;1.00
3701;DHT22;1866;48.374;10.766;2022-11-13T09:12:13;4.00;1.00
3701;DHT22;1866;48.374;10.766;2022-11-13T09:14:40;4.10;1.00
3701;DHT22;1866;48.374;10.766;2022-11-13T09:17:07;4.10;1.00
3701;DHT22;1866;48.374;10.766;2022-11-13T09:19:34;4.40;99.90
3701;DHT22;1866;48.374;10.766;2022-11-13T09:22:01;4.40;99.90
3701;DHT22;1866;48.374;10.766;2022-11-13T09:24:27;4.40;99.90
3701;DHT22;1866;48.374;10.766;2022-11-13T09:26:56;4.60;99.90
3701;DHT22;1866;48.374;10.766;2022-11-13T09:29:23;4.80;99.90
3701;DHT22;1866;48.374;10.766;2022-11-13T09:31:51;5.10;99.90
3701;DHT22;1866;48.374;10.766;2022-11-13T09:34:18;5.20;99.90
3701;DHT22;1866;48.374;10.766;2022-11-13T09:36:45;5.20;99.90
3701;DHT22;1866;48.374;10.766;2022-11-13T09:39:15;5.00;99.90
3701;DHT22;1866;48.374;10.766;2022-11-13T09:41:45;5.10;99.90
3701;DHT22;1866;48.374;10.766;2022-11-13T09:44:16;5.30;99.90
3701;DHT22;1866;48.374;10.766;2022-11-13T09:46:48;5.40;99.90
3701;DHT22;1866;48.374;10.766;2022-11-13T09:49:21;5.60;99.90
3701;DHT22;1866;48.374;10.766;2022-11-13T09:51:55;5.80;99.90
3701;DHT22;1866;48.374;10.766;2022-11-13T09:54:22;5.90;94.30
3701;DHT22;1866;48.374;10.766;2022-11-13T09:56:52;5.80;42.10
3701;DHT22;1866;48.374;10.766;2022-11-13T09:59:27;6.00;40.00
3701;DHT22;1866;48.374;10.766;2022-11-13T10:02:00;6.00;33.30
3701;DHT22;1866;48.374;10.766;2022-11-13T10:04:47;5.90;10.70
3701;DHT22;1866;48.374;10.766;2022-11-13T10:07:27;6.00;4.30
3701;DHT22;1866;48.374;10.766;2022-11-13T10:10:05;6.10;6.30
3701;DHT22;1866;48.374;10.766;2022-11-13T10:12:40;6.20;1.00
3701;DHT22;1866;48.374;10.766;2022-11-13T10:15:10;6.40;1.00
3701;DHT22;1866;48.374;10.766;2022-11-13T10:17:40;6.50;1.00
3701;DHT22;1866;48.374;10.766;2022-11-13T10:20:12;6.40;1.00
3701;DHT22;1866;48.374;10.766;2022-11-13T10:22:45;6.60;1.00
3701;DHT22;1866;48.374;10.766;2022-11-13T10:25:16;6.70;1.00
3701;DHT22;1866;48.374;10.766;2022-11-13T10:27:44;6.70;1.00
3701;DHT22;1866;48.374;10.766;2022-11-13T10:30:17;6.80;1.00
3701;DHT22;1866;48.374;10.766;2022-11-13T10:32:46;6.80;1.00
3701;DHT22;1866;48.374;10.766;2022-11-13T10:35:31;6.90;1.00
3701;DHT22;1866;48.374;10.766;2022-11-13T10:38:08;6.90;1.00
3701;DHT22;1866;48.374;10.766;2022-11-13T10:40:38;6.90;1.00
3701;DHT22;1866;48.374;10.766;2022-11-13T10:43:13;7.00;1.00
3701;DHT22;1866;48.374;10.766;2022-11-13T10:45:54;7.20;1.00
3701;DHT22;1866;48.374;10.766;2022-11-13T10:48:23;7.10;1.00
3701;DHT22;1866;48.374;10.766;2022-11-13T10:50:56;7.10;1.00
3701;DHT22;1866;48.374;10.766;2022-11-13T10:53:25;7.30;1.00
3701;DHT22;1866;48.374;10.766;2022-11-13T10:55:55;7.40;1.00
3701;DHT22;1866;48.374;10.766;2022-11-13T10:58:23;7.40;1.00
3701;DHT22;1866;48.374;10.766;2022-11-13T11:00:51;7.40;1.00
3701;DHT22;1866;48.374;10.766;2022-11-13T11:03:19;7.40;1.00
3701;DHT22;1866;48.374;10.766;2022-11-13T11:05:55;7.40;1.00
3701;DHT22;1866;48.374;10.766;2022-11-13T11:08:26;7.60;1.00
3701;DHT22;1866;48.374;10.766;2022-11-13T11:10:57;7.70;1.00
3701;DHT22;1866;48.374;10.766;2022-11-13T11:13:42;7.60;1.00
3701;DHT22;1866;48.374;10.766;2022-11-13T11:16:15;7.80;1.00
3701;DHT22;1866;48.374;10.766;2022-11-13T11:18:48;7.90;1.00
3701;DHT22;1866;48.374;10.766;2022-11-13T11:21:20;8.10;1.00
3701;DHT22;1866;48.374;10.766;2022-11-13T11:23:51;8.20;1.00
3701;DHT22;1866;48.374;10.766;2022-11-13T11:26:24;8.20;1.00
3701;DHT22;1866;48.374;10.766;2022-11-13T11:29:00;8.30;1.00
3701;DHT22;1866;48.374;10.766;2022-11-13T11:31:34;8.40;1.00
3701;DHT22;1866;48.374;10.766;2022-11-13T11:37:04;8.70;1.00
3701;DHT22;1866;48.374;10.766;2022-11-13T11:39:36;8.70;1.00
3701;DHT22;1866;48.374;10.766;2022-11-13T11:42:18;8.90;1.00
3701;DHT22;1866;48.374;10.766;2022-11-13T11:44:59;8.90;1.00
3701;DHT22;1866;48.374;10.766;2022-11-13T11:47:28;8.90;1.00
3701;DHT22;1866;48.374;10.766;2022-11-13T11:50:09;9.00;1.00
3701;DHT22;1866;48.374;10.766;2022-11-13T11:53:02;9.10;1.00
3701;DHT22;1866;48.374;10.766;2022-11-13T11:59:03;9.10;1.00
3701;DHT22;1866;48.374;10.766;2022-11-13T12:01:45;9.20;1.00
3701;DHT22;1866;48.374;10.766;2022-11-13T12:04:29;9.20;1.00
3701;DHT22;1866;48.374;10.766;2022-11-13T12:07:21;9.20;1.00
3701;DHT22;1866;48.374;10.766;2022-11-13T12:09:55;9.30;1.00
3701;DHT22;1866;48.374;10.766;2022-11-13T12:12:35;9.30;1.00
3701;DHT22;1866;48.374;10.766;2022-11-13T12:15:09;9.30;1.00
3701;DHT22;1866;48.374;10.766;2022-11-13T12:17:47;9.30;1.00
3701;DHT22;1866;48.374;10.766;2022-11-13T12:20:26;9.30;1.00
3701;DHT22;1866;48.374;10.766;2022-11-13T12:23:02;9.40;1.00
3701;DHT22;1866;48.374;10.766;2022-11-13T12:25:37;9.50;1.00
3701;DHT22;1866;48.374;10.766;2022-11-13T12:28:16;9.50;1.00
3701;DHT22;1866;48.374;10.766;2022-11-13T12:30:52;9.40;1.00
3701;DHT22;1866;48.374;10.766;2022-11-13T12:33:26;9.30;1.00
3701;DHT22;1866;48.374;10.766;2022-11-13T12:35:57;9.40;1.00
3701;DHT22;1866;48.374;10.766;2022-11-13T12:38:32;9.50;1.00
3701;DHT22;1866;48.374;10.766;2022-11-13T12:41:08;9.60;1.00
3701;DHT22;1866;48.374;10.766;2022-11-13T12:44:03;9.80;1.00
3701;DHT22;1866;48.374;10.766;2022-11-13T12:46:34;9.60;1.00
3701;DHT22;1866;48.374;10.766;2022-11-13T12:49:14;9.60;1.00
3701;DHT22;1866;48.374;10.766;2022-11-13T12:51:53;9.70;1.00
3701;DHT22;1866;48.374;10.766;2022-11-13T12:54:44;9.70;1.00
3701;DHT22;1866;48.374;10.766;2022-11-13T12:57:23;9.70;1.00
3701;DHT22;1866;48.374;10.766;2022-11-13T12:59:55;9.90;1.00
3701;DHT22;1866;48.374;10.766;2022-11-13T13:02:53;9.90;1.00
3701;DHT22;1866;48.374;10.766;2022-11-13T13:05:46;9.70;1.00
3701;DHT22;1866;48.374;10.766;2022-11-13T13:11:18;9.90;1.00
3701;DHT22;1866;48.374;10.766;2022-11-13T13:14:05;9.90;1.00
3701;DHT22;1866;48.374;10.766;2022-11-13T13:16:36;9.90;1.00
3701;DHT22;1866;48.374;10.766;2022-11-13T13:19:21;9.90;1.00
3701;DHT22;1866;48.374;10.766;2022-11-13T13:21:50;9.70;1.00
3701;DHT22;1866;48.374;10.766;2022-11-13T13:24:56;9.70;1.00
3701;DHT22;1866;48.374;10.766;2022-11-13T13:27:26;10.00;1.00
3701;DHT22;1866;48.374;10.766;2022-11-13T13:29:56;10.00;1.00
3701;DHT22;1866;48.374;10.766;2022-11-13T13:32:34;10.00;1.00
3701;DHT22;1866;48.374;10.766;2022-11-13T13:35:09;9.90;1.00
3701;DHT22;1866;48.374;10.766;2022-11-13T13:37:57;10.00;1.00
3701;DHT22;1866;48.374;10.766;2022-11-13T13:40:36;9.80;1.00
3701;DHT22;1866;48.374;10.766;2022-11-13T13:43:34;9.70;1.00
3701;DHT22;1866;48.374;10.766;2022-11-13T13:46:20;9.60;1.00
3701;DHT22;1866;48.374;10.766;2022-11-13T13:48:51;9.60;1.00
3701;DHT22;1866;48.374;10.766;2022-11-13T13:51:25;9.60;1.00
3701;DHT22;1866;48.374;10.766;2022-11-13T13:53:54;9.60;1.00
3701;DHT22;1866;48.374;10.766;2022-11-13T13:56:22;9.50;1.00
3701;DHT22;1866;48.374;10.766;2022-11-13T13:58:50;9.50;1.00
3701;DHT22;1866;48.374;10.766;2022-11-13T14:01:28;9.60;1.00
3701;DHT22;1866;48.374;10.766;2022-11-13T14:04:17;9.60;1.00
3701;DHT22;1866;48.374;10.766;2022-11-13T14:06:56;9.40;1.00
3701;DHT22;1866;48.374;10.766;2022-11-13T14:09:26;9.40;1.00
3701;DHT22;1866;48.374;10.766;2022-11-13T14:11:57;9.40;1.00
3701;DHT22;1866;48.374;10.766;2022-11-13T14:14:24;9.70;1.00
3701;DHT22;1866;48.374;10.766;2022-11-13T14:16:56;9.50;1.00
3701;DHT22;1866;48.374;10.766;2022-11-13T14:19:35;9.40;1.00
3701;DHT22;1866;48.374;10.766;2022-11-13T14:22:04;9.10;1.00
3701;DHT22;1866;48.374;10.766;2022-11-13T14:24:37;8.80;1.00
3701;DHT22;1866;48.374;10.766;2022-11-13T14:27:21;8.70;1.00
3701;DHT22;1866;48.374;10.766;2022-11-13T14:29:58;8.60;1.00
3701;DHT22;1866;48.374;10.766;2022-11-13T14:32:30;8.50;1.00
3701;DHT22;1866;48.374;10.766;2022-11-13T14:34:59;8.40;1.00
3701;DHT22;1866;48.374;10.766;2022-11-13T14:37:33;8.40;1.00
3701;DHT22;1866;48.374;10.766;2022-11-13T14:40:05;8.30;1.00
3701;DHT22;1866;48.374;10.766;2022-11-13T14:42:45;8.20;1.00
3701;DHT22;1866;48.374;10.766;2022-11-13T14:45:19;8.20;1.00
3701;DHT22;1866;48.374;10.766;2022-11-13T14:47:57;8.00;1.00
3701;DHT22;1866;48.374;10.766;2022-11-13T14:50:27;7.90;1.00
3701;DHT22;1866;48.374;10.766;2022-11-13T14:52:58;7.80;1.00
3701;DHT22;1866;48.374;10.766;2022-11-13T14:55:28;7.80;1.00
3701;DHT22;1866;48.374;10.766;2022-11-13T14:57:55;7.80;1.00
3701;DHT22;1866;48.374;10.766;2022-11-13T15:00:29;7.70;1.00
3701;DHT22;1866;48.374;10.766;2022-11-13T15:02:59;7.60;1.00
3701;DHT22;1866;48.374;10.766;2022-11-13T15:05:27;7.40;1.00
3701;DHT22;1866;48.374;10.766;2022-11-13T15:07:55;7.30;1.00
3701;DHT22;1866;48.374;10.766;2022-11-13T15:10:24;7.30;1.00
3701;DHT22;1866;48.374;10.766;2022-11-13T15:12:54;7.20;1.00
3701;DHT22;1866;48.374;10.766;2022-11-13T15:15:23;7.10;1.00
3701;DHT22;1866;48.374;10.766;2022-11-13T15:17:51;7.00;1.00
3701;DHT22;1866;48.374;10.766;2022-11-13T15:20:23;7.10;1.00
3701;DHT22;1866;48.374;10.766;2022-11-13T15:22:50;7.00;1.00
3701;DHT22;1866;48.374;10.766;2022-11-13T15:25:19;7.00;1.00
3701;DHT22;1866;48.374;10.766;2022-11-13T15:27:47;6.90;1.00
3701;DHT22;1866;48.374;10.766;2022-11-13T15:30:15;6.90;1.00
3701;DHT22;1866;48.374;10.766;2022-11-13T15:32:42;6.90;1.00
3701;DHT22;1866;48.374;10.766;2022-11-13T15:35:13;6.90;1.00
3701;DHT22;1866;48.374;10.766;2022-11-13T15:37:42;6.60;1.00
3701;DHT22;1866;48.374;10.766;2022-11-13T15:40:11;6.50;9.10
3701;DHT22;1866;48.374;10.766;2022-11-13T15:42:38;6.40;12.60
3701;DHT22;1866;48.374;10.766;2022-11-13T15:45:08;6.50;9.10
3701;DHT22;1866;48.374;10.766;2022-11-13T15:47:38;6.30;22.10
3701;DHT22;1866;48.374;10.766;2022-11-13T15:50:06;6.40;15.50
3701;DHT22;1866;48.374;10.766;2022-11-13T15:52:38;6.30;10.30
3701;DHT22;1866;48.374;10.766;2022-11-13T15:55:18;6.10;6.30
3701;DHT22;1866;48.374;10.766;2022-11-13T15:57:46;6.20;41.40
3701;DHT22;1866;48.374;10.766;2022-11-13T16:00:14;6.10;31.00
3701;DHT22;1866;48.374;10.766;2022-11-13T16:02:45;6.00;27.20
3701;DHT22;1866;48.374;10.766;2022-11-13T16:05:17;5.80;32.40
3701;DHT22;1866;48.374;10.766;2022-11-13T16:07:49;5.70;31.60
3701;DHT22;1866;48.374;10.766;2022-11-13T16:10:18;5.90;62.70
3701;DHT22;1866;48.374;10.766;2022-11-13T16:12:51;5.80;33.30
3701;DHT22;1866;48.374;10.766;2022-11-13T16:15:23;5.90;32.90
3701;DHT22;1866;48.374;10.766;2022-11-13T16:17:53;5.80;44.70
3701;DHT22;1866;48.374;10.766;2022-11-13T16:20:22;5.60;27.70
3701;DHT22;1866;48.374;10.766;2022-11-13T16:22:49;5.40;68.50
3701;DHT22;1866;48.374;10.766;2022-11-13T16:25:19;5.60;57.20
3701;DHT22;1866;48.374;10.766;2022-11-13T16:27:46;5.60;48.70
3701;DHT22;1866;48.374;10.766;2022-11-13T16:30:15;5.50;42.50
3701;DHT22;1866;48.374;10.766;2022-11-13T16:32:42;5.50;48.30
3701;DHT22;1866;48.374;10.766;2022-11-13T16:35:11;5.40;47.90
3701;DHT22;1866;48.374;10.766;2022-11-13T16:37:42;5.40;57.30
3701;DHT22;1866;48.374;10.766;2022-11-13T16:40:29;5.30;66.90
3701;DHT22;1866;48.374;10.766;2022-11-13T16:42:56;5.20;86.50
3701;DHT22;1866;48.374;10.766;2022-11-13T16:45:23;5.10;53.10